Terminal Aerodrome Forecast
Issued by NWS

Home | Current Version | Previous Version | Text Only | Print | Product List | Glossary On
Versions: 1 2 3 4 5 6 7 8 9 10 11 12 13
000
FTUS42 KGSP 241159 CCA
TAFAND
TAF COR
KAND 241159Z 2412/2512 09003KT P6SM VCSH SCT029 BKN035
      TEMPO 2412/2414 SCT019 BKN029
     FM241600 13004KT P6SM SCT025 BKN035
     FM241800 17004KT P6SM BKN045
     FM242300 11004KT P6SM BKN050
     FM250000 10003KT P6SM SCT050=

USA.gov is the U.S. government's official web portal to all federal, state and local government web resources and services.